createdAt,value
2019-04-01T00:00:20.831Z,9.04
2019-04-01T00:01:20.822Z,8.86
2019-04-01T00:02:20.790Z,8.87
2019-04-01T00:03:20.764Z,8.91
2019-04-01T00:04:20.748Z,8.93
2019-04-01T00:05:20.810Z,9.02
2019-04-01T00:06:20.694Z,9.04
2019-04-01T00:07:20.679Z,8.94
2019-04-01T00:08:20.659Z,9.01
2019-04-01T00:09:20.632Z,9.05
2019-04-01T00:10:20.613Z,9.04
2019-04-01T00:11:20.593Z,8.87
2019-04-01T00:12:20.568Z,8.96
2019-04-01T00:13:20.549Z,8.99
2019-04-01T00:14:20.530Z,9.13
2019-04-01T00:15:20.514Z,9.06
2019-04-01T00:16:20.488Z,8.88
2019-04-01T00:17:20.460Z,8.79
2019-04-01T00:18:20.433Z,8.96
2019-04-01T00:19:20.415Z,8.91
2019-04-01T00:20:20.395Z,8.97
2019-04-01T00:21:20.369Z,8.99
2019-04-01T00:22:20.350Z,8.99
2019-04-01T00:23:20.328Z,8.97
2019-04-01T00:24:20.308Z,9.09
2019-04-01T00:25:20.279Z,9.10
2019-04-01T00:26:20.257Z,9.06
2019-04-01T00:27:20.242Z,9.15
2019-04-01T00:28:20.221Z,9.16
2019-04-01T00:29:20.196Z,8.99
2019-04-01T00:30:20.171Z,8.97
2019-04-01T00:31:20.149Z,8.88
2019-04-01T00:32:20.129Z,8.88
2019-04-01T00:33:20.108Z,8.99
2019-04-01T00:34:20.085Z,8.96
2019-04-01T00:35:20.062Z,8.94
2019-04-01T00:36:20.043Z,9.02
2019-04-01T00:37:20.017Z,9.06
2019-04-01T00:38:20.001Z,9.09
2019-04-01T00:39:19.979Z,9.10
2019-04-01T00:40:19.956Z,9.12
2019-04-01T00:41:19.945Z,9.05
2019-04-01T00:42:19.913Z,8.97
2019-04-01T00:43:19.886Z,8.99
2019-04-01T00:44:19.863Z,8.91
2019-04-01T00:45:19.851Z,9.04
2019-04-01T00:46:19.944Z,8.97
2019-04-01T00:47:19.804Z,8.86
2019-04-01T00:48:19.778Z,8.81
2019-04-01T00:49:19.762Z,8.84
2019-04-01T00:50:19.733Z,8.76
2019-04-01T00:51:19.711Z,8.60
2019-04-01T00:52:19.692Z,8.65
2019-04-01T00:53:19.667Z,8.73
2019-04-01T00:54:19.647Z,8.75
2019-04-01T00:55:19.621Z,8.75
2019-04-01T00:56:19.619Z,8.78
2019-04-01T00:57:19.581Z,8.75
2019-04-01T00:58:19.561Z,8.73
2019-04-01T00:59:19.536Z,8.72
2019-04-01T01:00:19.517Z,8.72
2019-04-01T01:01:19.494Z,8.60
2019-04-01T01:02:19.476Z,8.57
2019-04-01T01:03:19.452Z,8.55
2019-04-01T01:04:19.434Z,8.71
2019-04-01T01:05:19.405Z,8.60
2019-04-01T01:06:19.402Z,8.60
2019-04-01T01:07:19.361Z,8.55
2019-04-01T01:08:19.347Z,8.47
2019-04-01T01:09:19.320Z,8.54
2019-04-01T01:10:19.290Z,8.42
2019-04-01T01:11:19.274Z,8.33
2019-04-01T01:12:19.249Z,8.36
2019-04-01T01:13:19.231Z,8.29
2019-04-01T01:14:19.207Z,8.25
2019-04-01T01:15:19.188Z,8.28
2019-04-01T01:16:19.168Z,8.12
2019-04-01T01:17:19.140Z,8.08
2019-04-01T01:18:19.117Z,8.07
2019-04-01T01:19:19.095Z,8.02
2019-04-01T01:20:19.070Z,8.12
2019-04-01T01:21:19.053Z,8.14
2019-04-01T01:22:19.036Z,8.14
2019-04-01T01:23:19.023Z,8.15
2019-04-01T01:24:18.991Z,8.15
2019-04-01T01:25:18.962Z,8.14
2019-04-01T01:26:18.939Z,8.18
2019-04-01T01:27:18.922Z,8.14
2019-04-01T01:28:18.895Z,8.12
2019-04-01T01:29:18.874Z,8.11
2019-04-01T01:30:18.850Z,8.12
2019-04-01T01:31:18.828Z,8.14
2019-04-01T01:32:18.806Z,8.18
2019-04-01T01:33:18.784Z,8.10
2019-04-01T01:34:18.765Z,8.15
2019-04-01T01:35:18.753Z,8.14
2019-04-01T01:36:18.720Z,8.12
2019-04-01T01:37:18.694Z,8.07
2019-04-01T01:38:18.672Z,8.03
2019-04-01T01:39:18.653Z,8.04
2019-04-01T01:40:18.629Z,8.14
2019-04-01T01:41:18.616Z,8.02
2019-04-01T01:42:18.585Z,7.97
2019-04-01T01:43:18.565Z,7.94
2019-04-01T01:44:18.543Z,7.87
2019-04-01T01:45:18.520Z,7.79
2019-04-01T01:46:18.489Z,7.77
2019-04-01T01:47:18.472Z,7.58
2019-04-01T01:48:18.447Z,7.56
2019-04-01T01:49:18.426Z,7.59
2019-04-01T01:50:18.423Z,7.53
2019-04-01T01:51:18.387Z,7.44
2019-04-01T01:52:18.362Z,7.42
2019-04-01T01:53:18.330Z,7.35
2019-04-01T01:54:18.314Z,7.23
2019-04-01T01:55:18.295Z,7.24
2019-04-01T01:56:18.269Z,7.13
2019-04-01T01:57:18.297Z,7.05
2019-04-01T01:58:18.227Z,6.98
2019-04-01T01:59:18.204Z,6.84
2019-04-01T02:00:18.185Z,6.81
2019-04-01T02:01:18.157Z,6.69
2019-04-01T02:02:18.134Z,6.56
2019-04-01T02:03:18.115Z,6.43
2019-04-01T02:04:18.093Z,6.26
2019-04-01T02:05:18.067Z,6.07
2019-04-01T02:06:18.048Z,5.96
2019-04-01T02:07:18.021Z,5.78
2019-04-01T02:08:17.999Z,5.75
2019-04-01T02:09:17.980Z,5.60
2019-04-01T02:10:18.895Z,5.59
2019-04-01T02:11:17.925Z,5.38
2019-04-01T02:12:17.909Z,5.37
2019-04-01T02:13:20.159Z,5.40
2019-04-01T02:14:17.862Z,5.28
2019-04-01T02:15:17.842Z,5.31
2019-04-01T02:16:17.820Z,5.16
2019-04-01T02:17:17.795Z,5.10
2019-04-01T02:18:17.765Z,5.07
2019-04-01T02:19:17.749Z,4.99
2019-04-01T02:20:17.749Z,4.88
2019-04-01T02:21:17.701Z,4.75
2019-04-01T02:22:17.679Z,4.76
2019-04-01T02:23:17.660Z,4.67
2019-04-01T02:24:17.635Z,4.70
2019-04-01T02:25:17.605Z,4.70
2019-04-01T02:26:17.585Z,4.79
2019-04-01T02:27:17.564Z,4.76
2019-04-01T02:28:17.541Z,4.65
2019-04-01T02:29:17.517Z,4.62
2019-04-01T02:30:17.487Z,4.52
2019-04-01T02:31:17.471Z,4.50
2019-04-01T02:32:17.445Z,4.58
2019-04-01T02:33:17.422Z,4.44
2019-04-01T02:34:17.396Z,4.47
2019-04-01T02:35:17.377Z,4.29
2019-04-01T02:36:17.364Z,4.33
2019-04-01T02:37:17.332Z,4.29
2019-04-01T02:38:17.310Z,4.28
2019-04-01T02:39:17.284Z,4.15
2019-04-01T02:40:21.704Z,4.08
2019-04-01T02:41:17.239Z,3.98
2019-04-01T02:42:17.223Z,3.89
2019-04-01T02:43:17.192Z,4.01
2019-04-01T02:44:17.175Z,3.98
2019-04-01T02:45:17.144Z,3.89
2019-04-01T02:46:17.125Z,3.90
2019-04-01T02:47:17.106Z,3.86
2019-04-01T02:48:17.077Z,3.88
2019-04-01T02:49:17.053Z,3.78
2019-04-01T02:50:17.027Z,3.82
2019-04-01T02:51:17.006Z,3.75
2019-04-01T02:52:16.991Z,3.76
2019-04-01T02:53:16.961Z,3.62
2019-04-01T02:54:16.928Z,3.65
2019-04-01T02:55:16.908Z,3.76
2019-04-01T02:56:16.888Z,3.72
2019-04-01T02:57:16.866Z,3.68
2019-04-01T02:58:16.840Z,3.72
2019-04-01T02:59:16.818Z,3.78
2019-04-01T03:00:16.794Z,3.70
2019-04-01T03:01:16.770Z,3.70
2019-04-01T03:02:16.747Z,3.53
2019-04-01T03:03:16.719Z,3.58
2019-04-01T03:04:16.707Z,3.46
2019-04-01T03:05:16.685Z,3.42
2019-04-01T03:06:16.658Z,3.42
2019-04-01T03:07:16.627Z,3.34
2019-04-01T03:08:16.601Z,3.25
2019-04-01T03:09:16.580Z,3.36
2019-04-01T03:10:16.563Z,3.43
2019-04-01T03:11:16.534Z,3.30
2019-04-01T03:12:16.516Z,3.25
2019-04-01T03:13:16.481Z,3.16
2019-04-01T03:14:16.474Z,3.16
2019-04-01T03:15:16.440Z,3.10
2019-04-01T03:16:16.413Z,3.09
2019-04-01T03:17:16.389Z,3.02
2019-04-01T03:18:16.368Z,2.97
2019-04-01T03:19:16.341Z,2.91
2019-04-01T03:20:16.317Z,3.03
2019-04-01T03:21:16.299Z,2.91
2019-04-01T03:22:16.268Z,3.02
2019-04-01T03:23:16.256Z,2.97
2019-04-01T03:24:16.226Z,3.03
2019-04-01T03:25:16.202Z,2.95
2019-04-01T03:26:16.178Z,2.92
2019-04-01T03:27:17.490Z,2.81
2019-04-01T03:28:16.128Z,2.81
2019-04-01T03:29:16.103Z,2.74
2019-04-01T03:30:16.077Z,2.74
2019-04-01T03:31:16.056Z,2.71
2019-04-01T03:32:16.039Z,2.70
2019-04-01T03:33:16.038Z,2.77
2019-04-01T03:34:15.989Z,2.61
2019-04-01T03:35:15.980Z,2.58
2019-04-01T03:36:15.939Z,2.51
2019-04-01T03:37:15.919Z,2.61
2019-04-01T03:38:15.889Z,2.44
2019-04-01T03:39:15.894Z,2.49
2019-04-01T03:40:15.847Z,2.52
2019-04-01T03:41:15.814Z,2.41
2019-04-01T03:42:15.961Z,2.38
2019-04-01T03:43:15.766Z,2.37
2019-04-01T03:44:15.752Z,2.30
2019-04-01T03:45:15.713Z,2.26
2019-04-01T03:46:15.694Z,2.19
2019-04-01T03:47:15.671Z,2.23
2019-04-01T03:48:15.648Z,2.20
2019-04-01T03:49:15.631Z,2.35
2019-04-01T03:50:15.599Z,2.26
2019-04-01T03:51:15.585Z,2.23
2019-04-01T03:52:15.552Z,2.22
2019-04-01T03:53:15.530Z,2.40
2019-04-01T03:54:15.498Z,2.37
2019-04-01T03:55:15.479Z,2.20
2019-04-01T03:56:15.457Z,2.22
2019-04-01T03:57:15.428Z,2.19
2019-04-01T03:58:15.407Z,2.19
2019-04-01T03:59:15.381Z,2.22
2019-04-01T04:00:15.361Z,2.17
2019-04-01T04:01:15.334Z,2.26
2019-04-01T04:02:15.315Z,2.15
2019-04-01T04:03:15.287Z,2.16
2019-04-01T04:04:15.280Z,2.17
2019-04-01T04:05:15.239Z,2.19
2019-04-01T04:06:15.209Z,2.12
2019-04-01T04:07:15.196Z,2.09
2019-04-01T04:08:15.167Z,2.19
2019-04-01T04:09:15.138Z,2.30
2019-04-01T04:10:15.115Z,2.12
2019-04-01T04:11:15.096Z,2.22
2019-04-01T04:12:15.071Z,2.22
2019-04-01T04:13:15.038Z,2.23
2019-04-01T04:14:15.032Z,2.20
2019-04-01T04:15:14.999Z,2.17
2019-04-01T04:16:14.974Z,2.13
2019-04-01T04:17:14.947Z,2.15
2019-04-01T04:18:14.923Z,2.15
2019-04-01T04:19:14.900Z,2.17
2019-04-01T04:20:14.907Z,2.19
2019-04-01T04:21:14.845Z,2.04
2019-04-01T04:22:14.827Z,2.08
2019-04-01T04:23:14.803Z,2.08
2019-04-01T04:24:14.782Z,2.10
2019-04-01T04:25:14.757Z,2.02
2019-04-01T04:26:14.731Z,1.98
2019-04-01T04:27:14.733Z,2.10
2019-04-01T04:28:14.686Z,1.94
2019-04-01T04:29:14.710Z,2.01
2019-04-01T04:30:14.654Z,1.90
2019-04-01T04:31:14.614Z,1.87
2019-04-01T04:32:14.585Z,1.91
2019-04-01T04:33:14.577Z,1.83
2019-04-01T04:34:14.540Z,1.85
2019-04-01T04:35:14.514Z,1.85
2019-04-01T04:36:14.485Z,1.80
2019-04-01T04:37:14.465Z,1.82
2019-04-01T04:38:14.434Z,1.89
2019-04-01T04:39:14.439Z,2.15
2019-04-01T04:40:14.389Z,2.09
2019-04-01T04:41:14.367Z,2.01
2019-04-01T04:42:14.341Z,1.94
2019-04-01T04:43:14.316Z,1.93
2019-04-01T04:44:14.311Z,1.83
2019-04-01T04:45:14.271Z,1.82
2019-04-01T04:46:14.261Z,1.75
2019-04-01T04:47:14.221Z,1.73
2019-04-01T04:48:14.195Z,1.72
2019-04-01T04:49:14.166Z,1.73
2019-04-01T04:50:14.148Z,1.64
2019-04-01T04:51:14.130Z,1.58
2019-04-01T04:52:14.099Z,1.58
2019-04-01T04:53:14.070Z,1.55
2019-04-01T04:54:14.051Z,1.43
2019-04-01T04:55:14.026Z,1.55
2019-04-01T04:56:14.001Z,1.55
2019-04-01T04:57:13.975Z,1.58
2019-04-01T04:58:13.984Z,1.72
2019-04-01T04:59:13.934Z,1.72
2019-04-01T05:00:13.902Z,1.75
2019-04-01T05:01:13.880Z,1.71
2019-04-01T05:02:13.911Z,1.69
2019-04-01T05:03:13.836Z,1.69
2019-04-01T05:04:13.811Z,1.52
2019-04-01T05:05:13.783Z,1.57
2019-04-01T05:06:13.757Z,1.55
2019-04-01T05:07:13.728Z,1.54
2019-04-01T05:08:13.709Z,1.55
2019-04-01T05:09:13.685Z,1.51
2019-04-01T05:10:13.654Z,1.58
2019-04-01T05:11:13.636Z,1.54
2019-04-01T05:12:13.611Z,1.52
2019-04-01T05:13:13.586Z,1.42
2019-04-01T05:14:13.563Z,1.54
2019-04-01T05:15:13.543Z,1.58
2019-04-01T05:16:13.516Z,1.58
2019-04-01T05:17:13.490Z,1.52
2019-04-01T05:18:13.465Z,1.52
2019-04-01T05:19:13.449Z,1.60
2019-04-01T05:20:16.397Z,1.50
2019-04-01T05:21:13.393Z,1.51
2019-04-01T05:22:13.366Z,1.58
2019-04-01T05:23:13.341Z,1.54
2019-04-01T05:24:13.318Z,1.52
2019-04-01T05:25:13.313Z,1.58
2019-04-01T05:26:13.274Z,1.73
2019-04-01T05:27:13.249Z,1.68
2019-04-01T05:28:13.222Z,1.76
2019-04-01T05:29:13.197Z,1.72
2019-04-01T05:30:13.189Z,1.69
2019-04-01T05:31:14.644Z,1.71
2019-04-01T05:32:13.122Z,1.72
2019-04-01T05:33:13.100Z,1.75
2019-04-01T05:34:13.072Z,1.80
2019-04-01T05:35:13.049Z,1.75
2019-04-01T05:36:13.027Z,1.72
2019-04-01T05:37:13.005Z,1.72
2019-04-01T05:38:12.978Z,1.73
2019-04-01T05:39:12.956Z,1.73
2019-04-01T05:40:12.927Z,1.79
2019-04-01T05:41:12.899Z,1.73
2019-04-01T05:42:12.883Z,1.78
2019-04-01T05:43:12.857Z,1.83
2019-04-01T05:44:12.832Z,1.89
2019-04-01T05:45:12.828Z,1.90
2019-04-01T05:46:12.779Z,1.97
2019-04-01T05:47:12.760Z,1.99
2019-04-01T05:48:12.735Z,2.08
2019-04-01T05:49:12.710Z,2.04
2019-04-01T05:50:12.685Z,2.22
2019-04-01T05:51:12.665Z,2.13
2019-04-01T05:52:12.646Z,2.16
2019-04-01T05:53:12.613Z,2.22
2019-04-01T05:54:12.590Z,2.23
2019-04-01T05:55:12.571Z,2.22
2019-04-01T05:56:12.545Z,2.31
2019-04-01T05:57:12.519Z,2.31
2019-04-01T05:58:12.497Z,2.27
2019-04-01T05:59:12.472Z,2.38
2019-04-01T06:00:12.440Z,2.44
2019-04-01T06:01:12.452Z,2.37
2019-04-01T06:02:12.409Z,2.53
2019-04-01T06:03:12.376Z,2.55
2019-04-01T06:04:12.350Z,2.58
2019-04-01T06:05:12.328Z,2.67
2019-04-01T06:06:12.302Z,2.71
2019-04-01T06:07:12.277Z,2.84
2019-04-01T06:08:12.261Z,2.82
2019-04-01T06:09:12.220Z,2.94
2019-04-01T06:10:12.204Z,2.95
2019-04-01T06:11:12.181Z,2.92
2019-04-01T06:12:12.163Z,3.10
2019-04-01T06:13:12.130Z,3.09
2019-04-01T06:14:12.111Z,3.33
2019-04-01T06:15:12.088Z,3.40
2019-04-01T06:16:12.063Z,3.71
2019-04-01T06:17:12.043Z,3.92
2019-04-01T06:18:12.015Z,4.24
2019-04-01T06:19:11.994Z,4.47
2019-04-01T06:20:11.966Z,4.91
2019-04-01T06:21:11.941Z,5.07
2019-04-01T06:22:11.918Z,5.13
2019-04-01T06:23:11.899Z,5.20
2019-04-01T06:24:11.877Z,5.07
2019-04-01T06:25:11.917Z,5.04
2019-04-01T06:26:11.828Z,5.09
2019-04-01T06:27:12.174Z,5.07
2019-04-01T06:28:11.785Z,5.19
2019-04-01T06:29:11.749Z,5.27
2019-04-01T06:30:11.731Z,5.32
2019-04-01T06:31:11.710Z,5.55
2019-04-01T06:32:11.702Z,5.63
2019-04-01T06:33:11.658Z,5.83
2019-04-01T06:34:11.636Z,6.13
2019-04-01T06:35:11.622Z,6.48
2019-04-01T06:36:11.588Z,6.69
2019-04-01T06:37:11.570Z,7.05
2019-04-01T06:38:11.545Z,7.37
2019-04-01T06:39:11.557Z,7.81
2019-04-01T06:40:11.499Z,8.02
2019-04-01T06:41:11.477Z,8.10
2019-04-01T06:42:11.449Z,8.37
2019-04-01T06:43:11.428Z,8.57
2019-04-01T06:44:11.408Z,8.71
2019-04-01T06:45:11.402Z,8.91
2019-04-01T06:46:11.354Z,9.04
2019-04-01T06:47:11.347Z,9.23
2019-04-01T06:48:11.315Z,9.34
2019-04-01T06:49:11.290Z,9.39
2019-04-01T06:50:11.270Z,9.31
2019-04-01T06:51:11.251Z,9.43
2019-04-01T06:52:11.227Z,9.46
2019-04-01T06:53:11.217Z,9.61
2019-04-01T06:54:11.186Z,9.82
2019-04-01T06:55:11.160Z,10.00
2019-04-01T06:56:11.140Z,10.24
2019-04-01T06:57:11.115Z,10.47
2019-04-01T06:58:12.011Z,10.58
2019-04-01T06:59:11.079Z,10.47
2019-04-01T07:00:11.056Z,10.44
2019-04-01T07:01:11.026Z,10.52
2019-04-01T07:02:11.008Z,10.55
2019-04-01T07:03:10.983Z,10.56
2019-04-01T07:04:10.968Z,10.19
2019-04-01T07:05:12.617Z,10.24
2019-04-01T07:06:10.925Z,10.30
2019-04-01T07:07:18.817Z,10.39
2019-04-01T07:08:10.879Z,10.39
2019-04-01T07:09:10.880Z,10.28
2019-04-01T07:10:10.856Z,10.04
2019-04-01T07:11:10.810Z,10.01
2019-04-01T07:12:10.800Z,10.06
2019-04-01T07:13:11.060Z,10.09
2019-04-01T07:14:10.746Z,10.07
2019-04-01T07:15:10.733Z,10.12
2019-04-01T07:16:15.631Z,10.07
2019-04-01T07:17:10.699Z,10.06
2019-04-01T07:18:10.667Z,10.00
2019-04-01T07:19:10.647Z,9.82
2019-04-01T07:20:10.631Z,9.86
2019-04-01T07:21:10.685Z,10.10
2019-04-01T07:22:10.592Z,10.39
2019-04-01T07:23:10.571Z,10.53
2019-04-01T07:24:10.557Z,10.66
2019-04-01T07:25:10.541Z,10.95
2019-04-01T07:26:10.500Z,11.19
2019-04-01T07:27:10.487Z,11.56
2019-04-01T07:28:10.458Z,11.56
2019-04-01T07:29:10.444Z,11.75
2019-04-01T07:30:10.418Z,11.94
2019-04-01T07:31:10.409Z,11.99
2019-04-01T07:32:10.380Z,12.42
2019-04-01T07:33:10.358Z,12.56
2019-04-01T07:34:10.345Z,12.67
2019-04-01T07:35:10.329Z,12.93
2019-04-01T07:36:10.327Z,13.21
2019-04-01T07:37:10.285Z,13.71
2019-04-01T07:38:10.284Z,13.70
2019-04-01T07:39:10.248Z,13.32
2019-04-01T07:40:13.687Z,13.30
2019-04-01T07:41:10.206Z,13.32
2019-04-01T07:42:10.188Z,13.36
2019-04-01T07:43:10.174Z,13.37
2019-04-01T07:44:10.148Z,13.41
2019-04-01T07:45:10.129Z,13.52
2019-04-01T07:46:10.120Z,13.94
2019-04-01T07:47:10.202Z,14.19
2019-04-01T07:48:12.610Z,14.60
2019-04-01T07:49:10.067Z,14.12
2019-04-01T07:50:12.317Z,13.77
2019-04-01T07:51:10.025Z,13.70
2019-04-01T07:52:10.002Z,13.56
2019-04-01T07:53:09.983Z,13.37
2019-04-01T07:54:09.962Z,13.49
2019-04-01T07:55:09.946Z,13.54
2019-04-01T07:56:09.926Z,13.67
2019-04-01T07:57:09.910Z,13.67
2019-04-01T07:58:09.891Z,14.06
2019-04-01T07:59:09.877Z,14.65
2019-04-01T08:00:09.867Z,14.42
2019-04-01T08:01:09.839Z,14.31
2019-04-01T08:02:09.824Z,14.42
2019-04-01T08:03:09.802Z,14.57
2019-04-01T08:04:09.811Z,14.28
2019-04-01T08:05:09.775Z,14.39
2019-04-01T08:06:09.753Z,14.69
2019-04-01T08:07:13.086Z,14.34
2019-04-01T08:08:09.721Z,14.38
2019-04-01T08:09:09.705Z,14.38
2019-04-01T08:10:09.699Z,14.43
2019-04-01T08:11:09.670Z,14.17
2019-04-01T08:12:09.648Z,14.06
2019-04-01T08:13:09.629Z,14.21
2019-04-01T08:14:09.619Z,14.50
2019-04-01T08:15:09.603Z,14.80
2019-04-01T08:16:09.578Z,14.95
2019-04-01T08:17:09.562Z,15.06
2019-04-01T08:18:09.545Z,14.84
2019-04-01T08:19:09.530Z,14.56
2019-04-01T08:20:09.514Z,14.78
2019-04-01T08:21:09.536Z,14.90
2019-04-01T08:22:09.482Z,15.02
2019-04-01T08:23:09.481Z,14.64
2019-04-01T08:24:09.452Z,14.39
2019-04-01T08:25:09.446Z,14.39
2019-04-01T08:26:09.426Z,14.74
2019-04-01T08:27:09.397Z,14.86
2019-04-01T08:28:09.381Z,14.42
2019-04-01T08:29:09.365Z,14.75
2019-04-01T08:30:09.348Z,15.09
2019-04-01T08:31:09.350Z,15.12
2019-04-01T08:32:09.322Z,15.45
2019-04-01T08:33:09.300Z,15.39
2019-04-01T08:34:09.286Z,15.56
2019-04-01T08:35:09.275Z,15.63
2019-04-01T08:36:09.268Z,15.23
2019-04-01T08:37:09.241Z,15.36
2019-04-01T08:38:09.231Z,15.81
2019-04-01T08:39:09.210Z,16.15
2019-04-01T08:40:09.195Z,16.03
2019-04-01T08:41:09.201Z,16.20
2019-04-01T08:42:09.164Z,15.85
2019-04-01T08:43:09.141Z,15.76
2019-04-01T08:44:09.134Z,16.25
2019-04-01T08:45:09.117Z,16.44
2019-04-01T08:46:09.100Z,16.71
2019-04-01T08:47:09.080Z,16.20
2019-04-01T08:48:09.084Z,16.31
2019-04-01T08:49:09.055Z,15.74
2019-04-01T08:50:09.041Z,15.68
2019-04-01T08:51:09.061Z,16.06
2019-04-01T08:52:09.031Z,16.18
2019-04-01T08:53:08.991Z,16.25
2019-04-01T08:54:08.977Z,16.44
2019-04-01T08:55:08.971Z,16.41
2019-04-01T08:56:08.955Z,16.16
2019-04-01T08:57:08.929Z,16.40
2019-04-01T08:58:08.919Z,16.09
2019-04-01T08:59:08.900Z,15.74
2019-04-01T09:00:08.890Z,16.09
2019-04-01T09:01:08.872Z,16.52
2019-04-01T09:02:17.726Z,16.88
2019-04-01T09:03:08.842Z,16.89
2019-04-01T09:04:08.821Z,16.83
2019-04-01T09:05:08.809Z,16.73
2019-04-01T09:06:08.862Z,16.70
2019-04-01T09:07:08.780Z,16.89
2019-04-01T09:08:08.768Z,16.85
2019-04-01T09:09:08.752Z,16.85
2019-04-01T09:10:08.745Z,16.52
2019-04-01T09:11:08.730Z,16.62
2019-04-01T09:12:08.756Z,16.37
2019-04-01T09:13:08.693Z,16.27
2019-04-01T09:14:08.679Z,16.58
2019-04-01T09:15:08.665Z,16.55
2019-04-01T09:16:08.655Z,16.41
2019-04-01T09:17:08.647Z,16.48
2019-04-01T09:18:08.626Z,16.83
2019-04-01T09:19:08.604Z,16.85
2019-04-01T09:20:08.597Z,17.11
2019-04-01T09:21:08.581Z,17.14
2019-04-01T09:22:08.562Z,17.13
2019-04-01T09:23:08.553Z,17.43
2019-04-01T09:24:08.599Z,17.55
2019-04-01T09:25:08.520Z,17.38
2019-04-01T09:26:08.511Z,17.14
2019-04-01T09:27:08.488Z,17.53
2019-04-01T09:28:08.475Z,17.97
2019-04-01T09:29:08.466Z,17.85
2019-04-01T09:30:08.450Z,17.66
2019-04-01T09:31:08.430Z,17.88
2019-04-01T09:32:08.421Z,17.89
2019-04-01T09:33:08.401Z,17.88
2019-04-01T09:34:08.395Z,17.62
2019-04-01T09:35:08.372Z,17.99
2019-04-01T09:36:08.366Z,18.19
2019-04-01T09:37:08.353Z,18.25
2019-04-01T09:38:08.337Z,17.78
2019-04-01T09:39:08.318Z,17.62
2019-04-01T09:40:08.311Z,17.69
2019-04-01T09:41:08.308Z,17.71
2019-04-01T09:42:08.298Z,17.87
2019-04-01T09:43:08.270Z,18.02
2019-04-01T09:44:08.257Z,17.99
2019-04-01T09:45:08.241Z,17.87
2019-04-01T09:46:08.260Z,18.02
2019-04-01T09:47:08.230Z,18.03
2019-04-01T09:48:08.204Z,18.07
2019-04-01T09:49:08.181Z,18.04
2019-04-01T09:50:08.169Z,18.34
2019-04-01T09:51:08.155Z,18.40
2019-04-01T09:52:08.142Z,18.39
2019-04-01T09:53:08.136Z,18.36
2019-04-01T09:54:08.142Z,18.42
2019-04-01T09:55:08.110Z,18.39
2019-04-01T09:56:08.110Z,18.72
2019-04-01T09:57:17.327Z,18.74
2019-04-01T09:58:08.071Z,18.28
2019-04-01T09:59:08.052Z,18.29
2019-04-01T10:00:08.039Z,18.44
2019-04-01T10:01:08.023Z,18.76
2019-04-01T10:02:08.017Z,18.36
2019-04-01T10:03:08.007Z,18.62
2019-04-01T10:04:07.992Z,18.82
2019-04-01T10:05:07.977Z,18.68
2019-04-01T10:06:10.385Z,18.39
2019-04-01T10:07:07.960Z,18.12
2019-04-01T10:08:07.947Z,17.81
2019-04-01T10:09:07.928Z,18.18
2019-04-01T10:10:07.914Z,18.55
2019-04-01T10:11:07.905Z,18.37
2019-04-01T10:12:07.895Z,18.58
2019-04-01T10:13:07.882Z,18.57
2019-04-01T10:14:07.877Z,19.01
2019-04-01T10:15:07.862Z,19.39
2019-04-01T10:16:07.854Z,19.01
2019-04-01T10:17:07.836Z,18.39
2019-04-01T10:18:07.823Z,18.70
2019-04-01T10:19:07.817Z,18.62
2019-04-01T10:20:07.801Z,18.76
2019-04-01T10:21:07.794Z,19.21
2019-04-01T10:22:07.789Z,19.02
2019-04-01T10:23:07.784Z,19.42
2019-04-01T10:24:07.765Z,19.70
2019-04-01T10:25:07.782Z,19.87
2019-04-01T10:26:07.750Z,19.98
2019-04-01T10:27:07.727Z,19.73
2019-04-01T10:28:07.721Z,19.25
2019-04-01T10:29:07.708Z,19.35
2019-04-01T10:30:07.698Z,19.55
2019-04-01T10:31:07.682Z,19.46
2019-04-01T10:32:07.682Z,18.73
2019-04-01T10:33:07.663Z,18.62
2019-04-01T10:34:07.660Z,19.06
2019-04-01T10:35:07.653Z,19.13
2019-04-01T10:36:07.635Z,19.29
2019-04-01T10:37:07.644Z,19.46
2019-04-01T10:38:07.622Z,19.63
2019-04-01T10:39:07.615Z,19.18
2019-04-01T10:40:07.620Z,18.82
2019-04-01T10:41:07.590Z,18.25
2019-04-01T10:42:07.584Z,18.13
2019-04-01T10:43:07.571Z,18.02
2019-04-01T10:44:07.588Z,18.36
2019-04-01T10:45:07.560Z,18.70
2019-04-01T10:46:07.546Z,18.97
2019-04-01T10:47:07.581Z,18.98
2019-04-01T10:48:07.590Z,18.99
2019-04-01T10:49:07.605Z,19.31
2019-04-01T10:50:07.537Z,19.21
2019-04-01T10:51:07.522Z,19.42
2019-04-01T10:52:07.536Z,19.18
2019-04-01T10:53:07.491Z,19.43
2019-04-01T10:54:07.550Z,19.17
2019-04-01T10:55:07.482Z,19.43
2019-04-01T10:56:07.542Z,19.15
2019-04-01T10:57:07.471Z,19.25
2019-04-01T10:58:07.620Z,19.18
2019-04-01T10:59:07.434Z,19.24
2019-04-01T11:00:07.484Z,19.31
2019-04-01T11:01:07.428Z,19.13
2019-04-01T11:02:07.459Z,19.51
2019-04-01T11:03:07.447Z,19.66
2019-04-01T11:04:07.454Z,19.65
2019-04-01T11:05:07.438Z,19.55
2019-04-01T11:06:07.415Z,19.66
2019-04-01T11:07:07.467Z,19.46
2019-04-01T11:08:07.375Z,19.31
2019-04-01T11:09:07.360Z,18.95
2019-04-01T11:10:11.133Z,19.08
2019-04-01T11:11:07.349Z,18.98
2019-04-01T11:12:07.344Z,18.84
2019-04-01T11:13:07.332Z,19.15
2019-04-01T11:14:07.325Z,19.17
2019-04-01T11:15:07.322Z,18.52
2019-04-01T11:16:07.312Z,18.82
2019-04-01T11:17:07.317Z,19.31
2019-04-01T11:18:07.296Z,19.60
2019-04-01T11:19:07.292Z,19.63
2019-04-01T11:20:08.167Z,19.54
2019-04-01T11:21:07.275Z,19.72
2019-04-01T11:22:07.271Z,19.88
2019-04-01T11:23:07.268Z,20.00
2019-04-01T11:24:07.737Z,19.53
2019-04-01T11:25:07.255Z,19.40
2019-04-01T11:26:07.258Z,19.29
2019-04-01T11:27:07.265Z,19.51
2019-04-01T11:28:07.237Z,19.76
2019-04-01T11:29:07.230Z,19.68
2019-04-01T11:30:08.068Z,19.68
2019-04-01T11:31:07.229Z,19.23
2019-04-01T11:32:07.751Z,19.18
2019-04-01T11:33:07.890Z,19.48
2019-04-01T11:34:07.213Z,19.79
2019-04-01T11:35:07.224Z,20.03
2019-04-01T11:36:07.213Z,20.12
2019-04-01T11:37:07.238Z,20.15
2019-04-01T11:38:07.247Z,19.91
2019-04-01T11:39:07.210Z,19.80
2019-04-01T11:40:11.044Z,19.78
2019-04-01T11:41:07.276Z,19.93
2019-04-01T11:42:07.197Z,19.90
2019-04-01T11:43:07.161Z,20.02
2019-04-01T11:44:07.156Z,20.30
2019-04-01T11:45:07.341Z,20.46
2019-04-01T11:46:07.149Z,20.46
2019-04-01T11:47:07.166Z,20.23
2019-04-01T11:48:07.167Z,20.65
2019-04-01T11:49:07.133Z,20.81
2019-04-01T11:50:07.160Z,20.80
2019-04-01T11:51:07.175Z,20.93
2019-04-01T11:52:07.145Z,20.43
2019-04-01T11:53:07.181Z,20.12
2019-04-01T11:54:08.213Z,20.28
2019-04-01T11:55:08.939Z,20.28
2019-04-01T11:56:07.117Z,19.79
2019-04-01T11:57:07.095Z,20.08
2019-04-01T11:58:07.092Z,20.58
2019-04-01T11:59:08.356Z,20.56
2019-04-01T12:00:11.344Z,20.12
2019-04-01T12:01:07.080Z,20.39
2019-04-01T12:02:07.073Z,20.54
2019-04-01T12:03:07.073Z,20.30
2019-04-01T12:04:07.086Z,20.41
2019-04-01T12:05:07.060Z,20.54
2019-04-01T12:06:07.061Z,19.94
2019-04-01T12:07:07.073Z,19.75
2019-04-01T12:08:07.057Z,20.16
2019-04-01T12:09:07.042Z,20.43
2019-04-01T12:10:07.708Z,20.43
2019-04-01T12:11:07.040Z,20.15
2019-04-01T12:12:07.035Z,20.35
2019-04-01T12:13:07.031Z,20.56
2019-04-01T12:14:07.027Z,20.59
2019-04-01T12:15:07.036Z,20.66
2019-04-01T12:16:07.187Z,20.68
2019-04-01T12:17:07.020Z,20.42
2019-04-01T12:18:07.010Z,20.28
2019-04-01T12:19:07.076Z,20.20
2019-04-01T12:20:07.007Z,20.12
2019-04-01T12:21:08.257Z,19.88
2019-04-01T12:22:06.995Z,19.86
2019-04-01T12:23:07.021Z,19.72
2019-04-01T12:24:06.990Z,19.63
2019-04-01T12:25:06.982Z,19.54
2019-04-01T12:26:15.039Z,19.76
2019-04-01T12:27:06.986Z,20.06
2019-04-01T12:28:06.972Z,20.13
2019-04-01T12:29:06.966Z,20.30
2019-04-01T12:30:06.963Z,20.28
2019-04-01T12:31:06.966Z,20.69
2019-04-01T12:32:06.963Z,20.69
2019-04-01T12:33:06.957Z,20.72
2019-04-01T12:34:07.010Z,20.42
2019-04-01T12:35:06.947Z,20.50
2019-04-01T12:36:06.949Z,20.47
2019-04-01T12:37:06.940Z,20.54
2019-04-01T12:38:06.931Z,20.66
2019-04-01T12:39:06.927Z,20.69
2019-04-01T12:40:06.925Z,20.84
2019-04-01T12:41:06.928Z,20.95
2019-04-01T12:42:06.922Z,20.98
2019-04-01T12:43:06.917Z,21.17
2019-04-01T12:44:06.911Z,21.26
2019-04-01T12:45:06.903Z,21.09
2019-04-01T12:46:06.906Z,21.13
2019-04-01T12:47:06.899Z,20.98
2019-04-01T12:48:06.889Z,21.09
2019-04-01T12:49:06.952Z,20.90
2019-04-01T12:50:06.967Z,21.01
2019-04-01T12:51:06.889Z,20.93
2019-04-01T12:52:06.950Z,20.95
2019-04-01T12:53:06.870Z,20.90
2019-04-01T12:54:06.873Z,20.71
2019-04-01T12:55:06.882Z,20.89
2019-04-01T12:56:06.863Z,20.84
2019-04-01T12:57:06.860Z,20.91
2019-04-01T12:58:06.853Z,20.69
2019-04-01T12:59:06.857Z,20.59
2019-04-01T13:00:06.846Z,20.31
2019-04-01T13:01:06.870Z,20.30
2019-04-01T13:02:06.842Z,20.53
2019-04-01T13:03:06.840Z,20.41
2019-04-01T13:04:06.839Z,20.68
2019-04-01T13:05:06.829Z,20.46
2019-04-01T13:06:06.827Z,20.42